createdAt,value
2022-08-24T00:01:57.468Z,1.83
2022-08-24T00:04:26.393Z,1.90
2022-08-24T00:06:56.749Z,1.90
2022-08-24T00:09:26.545Z,1.70
2022-08-24T00:11:54.918Z,1.70
2022-08-24T00:14:23.367Z,1.60
2022-08-24T00:16:51.868Z,1.75
2022-08-24T00:19:20.334Z,1.70
2022-08-24T00:21:49.159Z,1.75
2022-08-24T00:24:17.575Z,1.58
2022-08-24T00:26:48.000Z,1.65
2022-08-24T00:29:16.833Z,1.58
2022-08-24T00:31:45.413Z,1.70
2022-08-24T00:34:14.221Z,1.88
2022-08-24T00:36:42.641Z,1.80
2022-08-24T00:39:11.360Z,1.80
2022-08-24T00:41:41.853Z,1.60
2022-08-24T00:44:13.918Z,1.70
2022-08-24T00:46:45.511Z,1.85
2022-08-24T00:49:15.815Z,1.90
2022-08-24T00:51:47.644Z,2.15
2022-08-24T00:54:19.427Z,1.92
2022-08-24T00:56:50.662Z,1.80
2022-08-24T00:59:23.775Z,1.65
2022-08-24T01:01:53.312Z,1.75
2022-08-24T01:04:23.498Z,1.90
2022-08-24T01:06:51.922Z,1.67
2022-08-24T01:09:20.379Z,1.73
2022-08-24T01:11:49.894Z,1.63
2022-08-24T01:14:20.258Z,1.80
2022-08-24T01:17:06.242Z,1.80
2022-08-24T01:19:37.635Z,1.98
2022-08-24T01:22:25.363Z,1.80
2022-08-24T01:24:55.139Z,2.00
2022-08-24T01:27:26.376Z,1.88
2022-08-24T01:29:57.654Z,2.00
2022-08-24T01:32:27.959Z,1.80
2022-08-24T01:34:56.500Z,1.73
2022-08-24T01:37:24.933Z,1.80
2022-08-24T01:39:56.354Z,1.90
2022-08-24T01:42:29.988Z,2.00
2022-08-24T01:44:58.527Z,1.90
2022-08-24T01:47:26.924Z,2.05
2022-08-24T01:49:55.351Z,1.92
2022-08-24T01:52:25.222Z,1.98
2022-08-24T01:54:55.710Z,1.88
2022-08-24T01:57:26.198Z,2.00
2022-08-24T01:59:56.525Z,1.98
2022-08-24T02:02:29.237Z,2.00
2022-08-24T02:04:57.721Z,1.90
2022-08-24T02:07:26.770Z,1.73
2022-08-24T02:09:56.665Z,2.00
2022-08-24T02:12:25.094Z,2.30
2022-08-24T02:14:53.726Z,2.00
2022-08-24T02:17:22.146Z,2.13
2022-08-24T02:19:50.591Z,2.00
2022-08-24T02:22:19.862Z,2.10
2022-08-24T02:24:48.292Z,2.10
2022-08-24T02:27:18.076Z,2.10
2022-08-24T02:29:46.533Z,1.92
2022-08-24T02:32:15.033Z,1.83
2022-08-24T02:34:43.900Z,1.95
2022-08-24T02:37:12.309Z,2.05
2022-08-24T02:39:40.781Z,1.98
2022-08-24T02:42:09.224Z,2.00
2022-08-24T02:44:39.037Z,1.88
2022-08-24T02:47:07.574Z,1.90
2022-08-24T02:49:36.822Z,2.20
2022-08-24T02:52:05.526Z,2.05
2022-08-24T02:54:33.975Z,2.08
2022-08-24T02:57:02.380Z,2.17
2022-08-24T02:59:30.786Z,2.08
2022-08-24T03:02:00.559Z,2.20
2022-08-24T03:04:29.028Z,2.17
2022-08-24T03:06:57.418Z,2.20
2022-08-24T03:09:25.842Z,1.92
2022-08-24T03:11:57.412Z,2.13
2022-08-24T03:14:26.030Z,1.90
2022-08-24T03:16:54.455Z,1.95
2022-08-24T03:19:24.252Z,2.13
2022-08-24T03:21:53.678Z,2.20
2022-08-24T03:24:22.426Z,2.20
2022-08-24T03:26:50.843Z,2.13
2022-08-24T03:29:19.604Z,2.00
2022-08-24T03:31:49.304Z,1.92
2022-08-24T03:34:19.777Z,2.05
2022-08-24T03:36:50.081Z,2.10
2022-08-24T03:39:19.062Z,2.28
2022-08-24T03:41:47.460Z,1.98
2022-08-24T03:44:17.000Z,2.17
2022-08-24T03:46:47.621Z,2.00
2022-08-24T03:49:16.070Z,2.10
2022-08-24T03:51:44.539Z,2.20
2022-08-24T03:54:14.779Z,2.22
2022-08-24T03:56:43.289Z,1.98
2022-08-24T03:59:12.479Z,2.20
2022-08-24T04:01:40.904Z,2.30
2022-08-24T04:04:09.359Z,2.60
2022-08-24T04:06:37.731Z,2.40
2022-08-24T04:09:07.448Z,2.60
2022-08-24T04:11:40.631Z,2.40
2022-08-24T04:14:20.317Z,2.38
2022-08-24T04:16:57.596Z,2.43
2022-08-24T04:19:26.592Z,2.50
2022-08-24T04:21:57.504Z,2.30
2022-08-24T04:24:25.924Z,2.50
2022-08-24T04:26:55.671Z,2.33
2022-08-24T04:29:24.109Z,2.73
2022-08-24T04:31:52.555Z,2.60
2022-08-24T04:34:22.286Z,2.73
2022-08-24T04:36:50.663Z,2.80
2022-08-24T04:39:19.083Z,2.47
2022-08-24T04:41:47.477Z,2.73
2022-08-24T04:44:20.279Z,2.87
2022-08-24T04:46:48.662Z,2.90
2022-08-24T04:49:17.127Z,2.40
2022-08-24T04:51:45.807Z,2.70
2022-08-24T04:54:14.262Z,2.70
2022-08-24T04:56:42.637Z,2.90
2022-08-24T04:59:11.161Z,2.90
2022-08-24T05:01:44.479Z,2.80
2022-08-24T05:04:13.725Z,2.77
2022-08-24T05:06:43.008Z,2.77
2022-08-24T05:09:12.389Z,3.10
2022-08-24T05:11:41.562Z,3.13
2022-08-24T05:14:18.123Z,2.90
2022-08-24T05:16:52.573Z,3.23
2022-08-24T05:19:23.416Z,2.50
2022-08-24T05:21:52.182Z,3.07
2022-08-24T05:24:20.901Z,3.07
2022-08-24T05:26:49.913Z,2.77
2022-08-24T05:29:19.115Z,2.70
2022-08-24T05:31:48.937Z,3.00
2022-08-24T05:34:17.432Z,3.00
2022-08-24T05:36:46.240Z,2.40
2022-08-24T05:39:16.338Z,2.87
2022-08-24T05:41:45.296Z,2.60
2022-08-24T05:44:14.269Z,3.00
2022-08-24T05:46:43.277Z,2.78
2022-08-24T05:49:13.961Z,2.55
2022-08-24T05:51:43.215Z,2.53
2022-08-24T05:54:13.597Z,2.53
2022-08-24T05:56:42.030Z,2.50
2022-08-24T05:59:10.623Z,2.80
2022-08-24T06:01:44.556Z,2.50
2022-08-24T06:04:15.189Z,2.42
2022-08-24T06:06:43.825Z,2.28
2022-08-24T06:09:16.992Z,2.58
2022-08-24T06:11:47.026Z,2.78
2022-08-24T06:14:16.309Z,2.78
2022-08-24T06:16:45.807Z,2.53
2022-08-24T06:19:17.262Z,2.15
2022-08-24T06:21:47.004Z,2.42
2022-08-24T06:24:16.364Z,2.50
2022-08-24T06:27:02.369Z,2.35
2022-08-24T06:29:31.120Z,2.30
2022-08-24T06:31:59.919Z,2.80
2022-08-24T06:34:30.685Z,2.17
2022-08-24T06:36:59.120Z,2.50
2022-08-24T06:39:27.511Z,2.60
2022-08-24T06:41:56.894Z,2.42
2022-08-24T06:44:25.306Z,2.55
2022-08-24T06:46:53.875Z,2.42
2022-08-24T06:49:22.320Z,2.40
2022-08-24T06:51:52.129Z,2.47
2022-08-24T06:54:21.557Z,2.40
2022-08-24T06:56:49.977Z,2.30
2022-08-24T06:59:19.029Z,2.42
2022-08-24T07:01:47.527Z,2.47
2022-08-24T07:04:15.938Z,2.00
2022-08-24T07:06:44.351Z,2.30
2022-08-24T07:09:14.139Z,2.42
2022-08-24T07:11:42.643Z,2.55
2022-08-24T07:14:11.031Z,2.35
2022-08-24T07:16:39.746Z,2.17
2022-08-24T07:19:08.154Z,2.33
2022-08-24T07:21:37.006Z,2.28
2022-08-24T07:24:07.178Z,2.20
2022-08-24T07:26:37.107Z,2.10
2022-08-24T07:29:11.190Z,2.15
2022-08-24T07:31:49.529Z,2.30
2022-08-24T07:34:18.038Z,2.35
2022-08-24T07:36:46.491Z,2.65
2022-08-24T07:39:15.124Z,2.20
2022-08-24T07:42:11.102Z,2.53
2022-08-24T07:44:34.319Z,2.50
2022-08-24T07:47:20.831Z,2.40
2022-08-24T07:49:51.204Z,2.10
2022-08-24T07:52:19.793Z,2.45
2022-08-24T07:54:48.188Z,2.30
2022-08-24T07:57:18.039Z,2.20
2022-08-24T07:59:47.672Z,2.20
2022-08-24T08:02:17.266Z,2.13
2022-08-24T08:04:45.720Z,2.17
2022-08-24T08:07:14.937Z,2.38
2022-08-24T08:09:43.312Z,2.17
2022-08-24T08:12:12.340Z,2.20
2022-08-24T08:14:42.140Z,2.22
2022-08-24T08:17:10.579Z,2.20
2022-08-24T08:19:39.007Z,1.90
2022-08-24T08:22:24.967Z,2.03
2022-08-24T08:24:53.355Z,2.15
2022-08-24T08:27:21.989Z,1.80
2022-08-24T08:29:52.123Z,2.00
2022-08-24T08:32:21.353Z,1.90
2022-08-24T08:34:49.764Z,2.00
2022-08-24T08:37:18.324Z,2.20
2022-08-24T08:39:47.181Z,1.80
2022-08-24T08:42:33.588Z,2.20
2022-08-24T08:45:16.956Z,1.90
2022-08-24T08:48:00.296Z,2.00
2022-08-24T08:50:32.207Z,1.65
2022-08-24T08:53:31.341Z,1.73
2022-08-24T08:56:04.845Z,1.75
2022-08-24T08:58:40.894Z,1.85
2022-08-24T09:01:21.588Z,1.90
2022-08-24T09:04:06.284Z,1.85
2022-08-24T09:06:40.890Z,1.80
2022-08-24T09:09:18.179Z,1.90
2022-08-24T09:11:52.952Z,1.70
2022-08-24T09:14:42.425Z,1.90
2022-08-24T09:17:20.813Z,1.77
2022-08-24T09:19:56.771Z,1.70
2022-08-24T09:22:25.257Z,1.80
2022-08-24T09:25:02.138Z,1.85
2022-08-24T09:27:37.533Z,1.90
2022-08-24T09:30:10.161Z,2.00
2022-08-24T09:32:49.932Z,1.70
2022-08-24T09:35:26.762Z,1.70
2022-08-24T09:38:00.490Z,1.67
2022-08-24T09:40:37.829Z,1.50
2022-08-24T09:43:28.876Z,1.80
2022-08-24T09:46:08.535Z,1.80
2022-08-24T09:48:54.605Z,1.80
2022-08-24T09:51:44.008Z,2.00
2022-08-24T09:54:46.866Z,1.90
2022-08-24T09:57:44.239Z,1.65
2022-08-24T10:00:20.358Z,1.70
2022-08-24T10:02:53.909Z,1.80
2022-08-24T10:05:26.492Z,1.70
2022-08-24T10:07:58.611Z,2.00
2022-08-24T10:10:31.181Z,1.63
2022-08-24T10:13:10.323Z,1.75
2022-08-24T10:15:40.452Z,1.70
2022-08-24T10:18:13.911Z,1.73
2022-08-24T10:20:48.996Z,1.60
2022-08-24T10:23:30.339Z,1.90
2022-08-24T10:26:03.705Z,1.70
2022-08-24T10:28:49.291Z,1.75
2022-08-24T10:31:20.914Z,1.83
2022-08-24T10:33:57.607Z,1.85
2022-08-24T10:36:35.726Z,1.58
2022-08-24T10:39:29.443Z,1.70
2022-08-24T10:42:37.328Z,1.80
2022-08-24T10:45:31.456Z,2.00
2022-08-24T10:48:13.269Z,1.95
2022-08-24T10:50:48.326Z,1.70
2022-08-24T10:53:21.203Z,1.85
2022-08-24T10:55:53.381Z,1.85
2022-08-24T10:58:35.167Z,2.00
2022-08-24T11:01:17.886Z,1.90
2022-08-24T11:03:54.356Z,1.98
2022-08-24T11:06:24.374Z,1.75
2022-08-24T11:08:54.417Z,1.75
2022-08-24T11:11:27.448Z,1.80
2022-08-24T11:13:59.084Z,1.80
2022-08-24T11:16:31.475Z,1.95
2022-08-24T11:19:00.740Z,2.00
2022-08-24T11:21:46.790Z,2.17
2022-08-24T11:24:26.469Z,1.88
2022-08-24T11:26:57.014Z,1.98
2022-08-24T11:29:30.658Z,1.98
2022-08-24T11:32:00.840Z,1.92
2022-08-24T11:34:33.984Z,1.88
2022-08-24T11:37:02.641Z,2.00
2022-08-24T11:39:34.271Z,1.67
2022-08-24T11:42:05.359Z,2.05
2022-08-24T11:44:44.495Z,1.80
2022-08-24T11:47:20.456Z,1.70
2022-08-24T11:49:54.315Z,2.10
2022-08-24T11:52:27.841Z,2.17
2022-08-24T11:55:00.466Z,2.10
2022-08-24T11:57:31.991Z,1.90
2022-08-24T12:00:05.993Z,2.20
2022-08-24T12:02:38.914Z,2.03
2022-08-24T12:05:09.303Z,2.00
2022-08-24T12:07:44.914Z,2.10
2022-08-24T12:10:24.222Z,1.95
2022-08-24T12:12:54.499Z,2.20
2022-08-24T12:15:28.743Z,1.80
2022-08-24T12:18:01.468Z,2.05
2022-08-24T12:20:33.564Z,2.20
2022-08-24T12:23:04.285Z,1.90
2022-08-24T12:25:53.203Z,2.30
2022-08-24T12:28:24.116Z,2.08
2022-08-24T12:30:53.218Z,1.80
2022-08-24T12:33:26.207Z,1.92
2022-08-24T12:35:56.215Z,2.15
2022-08-24T12:38:27.540Z,2.03
2022-08-24T12:40:57.692Z,2.00
2022-08-24T12:43:31.880Z,1.80
2022-08-24T12:46:01.469Z,2.03
2022-08-24T12:48:32.862Z,2.00
2022-08-24T12:51:07.156Z,2.50
2022-08-24T12:53:51.894Z,2.22
2022-08-24T12:56:38.786Z,2.03
2022-08-24T12:59:09.866Z,1.88
2022-08-24T13:01:41.775Z,2.10
2022-08-24T13:04:17.599Z,2.35
2022-08-24T13:06:48.662Z,2.10
2022-08-24T13:09:18.959Z,2.10
2022-08-24T13:11:47.456Z,2.22
2022-08-24T13:14:20.991Z,1.92
2022-08-24T13:17:07.431Z,2.00
2022-08-24T13:19:39.887Z,2.13
2022-08-24T13:22:26.719Z,2.50
2022-08-24T13:25:00.321Z,2.00
2022-08-24T13:27:49.834Z,2.03
2022-08-24T13:30:22.393Z,2.10
2022-08-24T13:32:57.725Z,2.35
2022-08-24T13:35:36.915Z,2.00
2022-08-24T13:38:24.007Z,2.40
2022-08-24T13:40:55.634Z,2.10
2022-08-24T13:43:29.148Z,2.25
2022-08-24T13:45:59.225Z,2.30
2022-08-24T13:48:39.664Z,2.25
2022-08-24T13:51:20.634Z,2.10
2022-08-24T13:54:09.945Z,2.30
2022-08-24T13:57:02.541Z,2.10
2022-08-24T13:59:49.985Z,2.30
2022-08-24T14:02:27.705Z,2.20
2022-08-24T14:04:59.691Z,2.33
2022-08-24T14:07:32.163Z,2.08
2022-08-24T14:10:05.100Z,1.90
2022-08-24T14:12:40.917Z,2.20
2022-08-24T14:15:13.075Z,2.30
2022-08-24T14:17:55.579Z,2.15
2022-08-24T14:20:32.504Z,2.15
2022-08-24T14:23:08.999Z,1.98
2022-08-24T14:25:38.335Z,2.10
2022-08-24T14:28:25.452Z,2.13
2022-08-24T14:31:08.808Z,2.05
2022-08-24T14:33:38.496Z,2.30
2022-08-24T14:36:16.841Z,2.10
2022-08-24T14:38:55.258Z,1.95
2022-08-24T14:41:29.806Z,1.80
2022-08-24T14:44:06.863Z,1.90
2022-08-24T14:46:40.360Z,2.10
2022-08-24T14:49:14.571Z,2.33
2022-08-24T14:51:51.491Z,2.08
2022-08-24T14:54:26.567Z,2.30
2022-08-24T14:57:01.455Z,2.10
2022-08-24T14:59:38.731Z,2.10
2022-08-24T15:02:34.358Z,2.42
2022-08-24T15:05:07.722Z,2.28
2022-08-24T15:07:37.462Z,2.05
2022-08-24T15:10:14.998Z,1.98
2022-08-24T15:12:46.466Z,2.28
2022-08-24T15:15:19.070Z,2.60
2022-08-24T15:17:54.756Z,2.30
2022-08-24T15:20:31.730Z,2.42
2022-08-24T15:23:03.264Z,2.40
2022-08-24T15:25:36.894Z,2.10
2022-08-24T15:28:11.674Z,2.15
2022-08-24T15:30:41.254Z,2.35
2022-08-24T15:33:14.964Z,2.15
2022-08-24T15:35:46.674Z,2.00
2022-08-24T15:38:19.787Z,2.08
2022-08-24T15:40:51.212Z,2.50
2022-08-24T15:43:19.643Z,2.30
2022-08-24T15:45:49.308Z,2.45
2022-08-24T15:48:19.121Z,2.40
2022-08-24T15:50:49.120Z,2.13
2022-08-24T15:53:35.080Z,2.20
2022-08-24T15:56:26.332Z,2.35
2022-08-24T15:58:55.186Z,2.40
2022-08-24T16:01:43.640Z,2.20
2022-08-24T16:04:34.988Z,2.40
2022-08-24T16:07:04.921Z,2.20
2022-08-24T16:09:36.078Z,2.33
2022-08-24T16:12:06.750Z,2.17
2022-08-24T16:14:36.601Z,2.03
2022-08-24T16:17:20.664Z,2.25
2022-08-24T16:19:51.524Z,2.30
2022-08-24T16:22:29.781Z,2.05
2022-08-24T16:25:10.818Z,2.20
2022-08-24T16:27:54.518Z,2.30
2022-08-24T16:30:24.623Z,2.22
2022-08-24T16:32:55.002Z,2.58
2022-08-24T16:35:24.344Z,2.40
2022-08-24T16:37:55.468Z,2.53
2022-08-24T16:40:24.183Z,2.15
2022-08-24T16:42:54.671Z,2.40
2022-08-24T16:45:23.644Z,2.20
2022-08-24T16:47:52.049Z,2.10
2022-08-24T16:50:22.079Z,2.10
2022-08-24T16:53:00.389Z,2.65
2022-08-24T16:55:29.785Z,2.25
2022-08-24T16:58:01.553Z,2.25
2022-08-24T17:00:30.933Z,2.20
2022-08-24T17:02:59.619Z,2.20
2022-08-24T17:05:29.842Z,2.22
2022-08-24T17:08:01.921Z,2.33
2022-08-24T17:10:34.923Z,2.10
2022-08-24T17:13:05.825Z,2.28
2022-08-24T17:15:34.282Z,2.30
2022-08-24T17:18:05.158Z,2.20
2022-08-24T17:20:33.770Z,2.05
2022-08-24T17:23:03.550Z,2.13
2022-08-24T17:25:32.139Z,2.13
2022-08-24T17:28:02.796Z,2.47
2022-08-24T17:30:32.203Z,2.20
2022-08-24T17:33:00.718Z,2.20
2022-08-24T17:35:29.441Z,2.03
2022-08-24T17:37:58.048Z,2.10
2022-08-24T17:40:30.025Z,2.25
2022-08-24T17:42:58.957Z,2.40
2022-08-24T17:45:27.495Z,2.40
2022-08-24T17:47:55.888Z,2.20
2022-08-24T17:50:25.318Z,2.28
2022-08-24T17:53:06.491Z,2.30
2022-08-24T17:55:36.350Z,1.90
2022-08-24T17:58:07.880Z,2.15
2022-08-24T18:00:36.323Z,2.30
2022-08-24T18:03:05.051Z,2.40
2022-08-24T18:05:34.232Z,2.40
2022-08-24T18:08:03.705Z,2.17
2022-08-24T18:10:33.430Z,2.20
2022-08-24T18:13:03.821Z,2.28
2022-08-24T18:15:35.911Z,2.40
2022-08-24T18:18:05.638Z,2.53
2022-08-24T18:20:36.941Z,2.30
2022-08-24T18:23:05.433Z,2.30
2022-08-24T18:25:41.606Z,2.53
2022-08-24T18:28:11.436Z,2.40
2022-08-24T18:30:40.980Z,2.60
2022-08-24T18:33:09.533Z,2.10
2022-08-24T18:35:37.984Z,2.28
2022-08-24T18:38:06.509Z,2.42
2022-08-24T18:40:34.981Z,2.25
2022-08-24T18:43:05.400Z,2.25
2022-08-24T18:45:36.190Z,2.50
2022-08-24T18:48:04.890Z,2.30
2022-08-24T18:50:37.669Z,2.40
2022-08-24T18:53:10.788Z,2.28
2022-08-24T18:55:39.294Z,2.22
2022-08-24T18:58:07.765Z,2.60
2022-08-24T19:00:37.786Z,2.50
2022-08-24T19:03:07.657Z,2.30
2022-08-24T19:05:36.112Z,2.40
2022-08-24T19:08:04.779Z,2.03
2022-08-24T19:10:36.760Z,2.50
2022-08-24T19:13:08.362Z,2.17
2022-08-24T19:15:39.526Z,2.22
2022-08-24T19:18:09.910Z,2.20
2022-08-24T19:20:39.146Z,2.40
2022-08-24T19:23:08.898Z,2.50
2022-08-24T19:25:38.650Z,2.40
2022-08-24T19:28:07.133Z,2.50
2022-08-24T19:30:35.739Z,2.33
2022-08-24T19:33:08.354Z,2.45
2022-08-24T19:35:40.297Z,2.20
2022-08-24T19:38:09.044Z,2.30
2022-08-24T19:40:39.103Z,2.13
2022-08-24T19:43:08.632Z,2.25
2022-08-24T19:45:54.879Z,2.30
2022-08-24T19:48:25.099Z,2.40
2022-08-24T19:50:54.218Z,2.50
2022-08-24T19:53:22.910Z,2.47
2022-08-24T19:55:51.746Z,2.30
2022-08-24T19:58:23.767Z,2.60
2022-08-24T20:00:57.092Z,2.22
2022-08-24T20:03:26.865Z,2.40
2022-08-24T20:05:55.720Z,2.10
2022-08-24T20:08:24.177Z,2.25
2022-08-24T20:10:53.194Z,2.38
2022-08-24T20:13:21.784Z,2.50
2022-08-24T20:15:50.383Z,2.28
2022-08-24T20:18:18.867Z,2.50
2022-08-24T20:20:50.060Z,2.40
2022-08-24T20:23:19.521Z,2.60
2022-08-24T20:25:47.957Z,2.10
2022-08-24T20:28:37.405Z,2.30
2022-08-24T20:31:05.265Z,2.28
2022-08-24T20:33:33.706Z,2.33
2022-08-24T20:36:03.738Z,2.50
2022-08-24T20:38:33.874Z,2.38
2022-08-24T20:41:02.647Z,2.30
2022-08-24T20:43:31.152Z,2.55
2022-08-24T20:45:59.579Z,2.53
2022-08-24T20:48:30.987Z,2.30
2022-08-24T20:50:59.882Z,2.70
2022-08-24T20:53:29.714Z,2.90
2022-08-24T20:55:58.716Z,2.75
2022-08-24T20:58:27.401Z,2.40
2022-08-24T21:00:55.876Z,2.67
2022-08-24T21:03:24.359Z,2.65
2022-08-24T21:05:52.806Z,2.78
2022-08-24T21:08:21.230Z,2.60
2022-08-24T21:10:51.035Z,2.88
2022-08-24T21:13:19.595Z,2.92
2022-08-24T21:15:48.759Z,2.80
2022-08-24T21:18:17.524Z,2.70
2022-08-24T21:20:58.242Z,2.80
2022-08-24T21:23:33.202Z,2.78
2022-08-24T21:26:03.180Z,2.63
2022-08-24T21:28:31.667Z,2.70
2022-08-24T21:31:05.173Z,3.00
2022-08-24T21:33:52.199Z,3.00
2022-08-24T21:36:23.600Z,3.03
2022-08-24T21:38:54.428Z,2.78
2022-08-24T21:41:24.634Z,2.80
2022-08-24T21:43:53.393Z,2.88
2022-08-24T21:46:22.626Z,3.10
2022-08-24T21:48:51.088Z,3.13
2022-08-24T21:51:19.501Z,3.13
2022-08-24T21:53:48.095Z,2.88
2022-08-24T21:56:16.899Z,2.78
2022-08-24T21:58:48.999Z,3.00
2022-08-24T22:01:17.569Z,3.15
2022-08-24T22:03:45.981Z,2.92
2022-08-24T22:06:14.541Z,2.90
2022-08-24T22:08:44.066Z,3.20
2022-08-24T22:11:13.144Z,2.83
2022-08-24T22:13:41.816Z,2.80
2022-08-24T22:16:11.741Z,3.00
2022-08-24T22:18:40.567Z,3.30
2022-08-24T22:21:09.642Z,3.17
2022-08-24T22:23:38.286Z,3.13
2022-08-24T22:26:07.115Z,3.05
2022-08-24T22:28:36.190Z,3.30
2022-08-24T22:31:05.055Z,3.10
2022-08-24T22:33:34.802Z,2.95
2022-08-24T22:36:03.203Z,3.20
2022-08-24T22:38:31.565Z,3.20
2022-08-24T22:40:59.988Z,3.15
2022-08-24T22:43:48.937Z,3.33
2022-08-24T22:46:19.959Z,2.80
2022-08-24T22:48:49.780Z,2.97
2022-08-24T22:51:18.715Z,2.92
2022-08-24T22:53:47.623Z,2.95
2022-08-24T22:56:16.987Z,3.08
2022-08-24T22:58:46.004Z,3.08
2022-08-24T23:01:21.761Z,3.20
2022-08-24T23:03:52.570Z,3.30
2022-08-24T23:06:21.456Z,3.30
2022-08-24T23:08:50.187Z,3.15
2022-08-24T23:11:19.294Z,3.00
2022-08-24T23:13:48.152Z,3.25
2022-08-24T23:16:16.634Z,2.95
2022-08-24T23:19:02.642Z,3.13
2022-08-24T23:21:33.026Z,2.90
2022-08-24T23:24:01.837Z,3.10
2022-08-24T23:26:32.218Z,3.30
2022-08-24T23:29:01.120Z,3.20
2022-08-24T23:31:30.368Z,3.03
2022-08-24T23:33:59.036Z,2.95
2022-08-24T23:36:28.766Z,2.83
2022-08-24T23:39:00.269Z,3.10
2022-08-24T23:41:30.105Z,3.33
2022-08-24T23:44:00.912Z,3.20
2022-08-24T23:46:29.389Z,3.00
2022-08-24T23:49:00.568Z,3.13
2022-08-24T23:51:32.295Z,3.42
2022-08-24T23:54:02.280Z,3.20
2022-08-24T23:56:32.123Z,3.65
2022-08-24T23:59:01.811Z,3.38
